createdAt,value
2022-08-22T00:02:58.382Z,16.50
2022-08-22T00:02:58.997Z,18.50
2022-08-22T00:04:17.157Z,17.70
2022-08-22T00:09:29.218Z,17.50
2022-08-22T00:14:38.823Z,17.10
2022-08-22T00:19:49.110Z,16.90
2022-08-22T00:25:02.901Z,16.80
2022-08-22T00:30:09.737Z,16.70
2022-08-22T00:35:19.621Z,16.70
2022-08-22T00:40:35.676Z,16.80
2022-08-22T00:46:02.482Z,16.80
2022-08-22T00:51:23.789Z,16.60
2022-08-22T00:56:46.470Z,16.30
2022-08-22T01:01:57.037Z,16.10
2022-08-22T01:07:10.931Z,16.00
2022-08-22T01:12:43.179Z,15.90
2022-08-22T01:18:16.711Z,15.80
2022-08-22T01:23:48.428Z,15.80
2022-08-22T01:29:28.552Z,15.70
2022-08-22T01:35:12.935Z,15.60
2022-08-22T01:40:53.717Z,15.80
2022-08-22T01:46:26.277Z,15.80
2022-08-22T01:51:39.521Z,16.00
2022-08-22T01:56:45.226Z,16.10
2022-08-22T02:01:57.953Z,16.10
2022-08-22T02:07:06.760Z,16.10
2022-08-22T02:12:29.570Z,16.00
2022-08-22T02:17:33.554Z,16.00
2022-08-22T02:22:44.676Z,16.00
2022-08-22T02:27:58.470Z,16.20
2022-08-22T02:33:07.176Z,16.20
2022-08-22T02:38:25.084Z,16.10
2022-08-22T02:43:35.984Z,16.00
2022-08-22T02:48:44.287Z,16.00
2022-08-22T02:53:53.089Z,15.90
2022-08-22T02:59:00.071Z,15.70
2022-08-22T03:04:22.446Z,15.70
2022-08-22T03:09:30.404Z,15.80
2022-08-22T03:14:38.884Z,15.80
2022-08-22T03:19:56.206Z,15.70
2022-08-22T03:25:10.248Z,15.50
2022-08-22T03:30:18.541Z,15.20
2022-08-22T03:35:33.878Z,15.10
2022-08-22T03:40:52.157Z,15.50
2022-08-22T03:46:36.022Z,15.50
2022-08-22T03:51:55.014Z,15.60
2022-08-22T03:57:40.579Z,15.50
2022-08-22T04:03:25.104Z,15.40
2022-08-22T04:09:06.652Z,15.30
2022-08-22T04:14:45.906Z,15.40
2022-08-22T04:20:05.575Z,15.40
2022-08-22T04:25:14.507Z,15.40
2022-08-22T04:30:24.086Z,15.30
2022-08-22T04:35:31.098Z,15.30
2022-08-22T04:40:38.413Z,15.20
2022-08-22T04:45:47.761Z,15.00
2022-08-22T04:50:54.925Z,14.90
2022-08-22T04:56:07.695Z,14.90
2022-08-22T05:01:15.323Z,14.80
2022-08-22T05:06:19.782Z,14.80
2022-08-22T05:11:24.296Z,14.80
2022-08-22T05:16:31.942Z,14.90
2022-08-22T05:21:37.316Z,15.00
2022-08-22T05:26:42.761Z,15.30
2022-08-22T05:31:49.053Z,15.50
2022-08-22T05:36:56.532Z,15.70
2022-08-22T05:42:02.188Z,16.00
2022-08-22T05:47:16.757Z,16.40
2022-08-22T05:52:32.424Z,16.50
2022-08-22T05:57:39.178Z,16.70
2022-08-22T06:02:55.465Z,16.90
2022-08-22T06:08:02.674Z,17.00
2022-08-22T06:13:11.602Z,17.10
2022-08-22T06:18:20.352Z,17.30
2022-08-22T06:23:27.142Z,17.30
2022-08-22T06:28:34.647Z,17.40
2022-08-22T06:33:45.448Z,17.60
2022-08-22T06:38:55.743Z,17.80
2022-08-22T06:43:59.221Z,17.90
2022-08-22T06:49:04.393Z,18.10
2022-08-22T06:54:14.583Z,18.50
2022-08-22T06:59:18.778Z,19.00
2022-08-22T07:04:26.075Z,19.20
2022-08-22T07:09:31.593Z,19.50
2022-08-22T07:14:40.083Z,19.80
2022-08-22T07:19:54.042Z,19.60
2022-08-22T07:24:59.531Z,19.60
2022-08-22T07:30:06.841Z,19.60
2022-08-22T07:35:18.045Z,19.70
2022-08-22T07:40:26.681Z,19.70
2022-08-22T07:45:35.032Z,19.70
2022-08-22T07:50:58.087Z,20.30
2022-08-22T07:56:01.659Z,20.90
2022-08-22T08:01:03.720Z,21.00
2022-08-22T08:06:08.353Z,21.50
2022-08-22T08:11:13.478Z,21.60
2022-08-22T08:16:17.825Z,21.70
2022-08-22T08:21:30.607Z,21.90
2022-08-22T08:26:35.445Z,22.30
2022-08-22T08:31:45.047Z,22.70
2022-08-22T08:36:51.173Z,23.30
2022-08-22T08:42:34.374Z,23.50
2022-08-22T08:47:56.618Z,23.90
2022-08-22T08:53:26.815Z,24.30
2022-08-22T08:58:45.989Z,24.80
2022-08-22T09:04:19.684Z,25.10
2022-08-22T09:09:42.709Z,25.40
2022-08-22T09:15:11.905Z,25.70
2022-08-22T09:20:35.165Z,25.90
2022-08-22T09:25:42.737Z,26.20
2022-08-22T09:31:02.581Z,26.40
2022-08-22T09:36:23.450Z,26.70
2022-08-22T09:41:40.068Z,27.10
2022-08-22T09:46:56.370Z,27.40
2022-08-22T09:52:14.458Z,27.70
2022-08-22T09:57:33.718Z,27.90
2022-08-22T10:02:43.531Z,28.20
2022-08-22T10:08:02.477Z,28.30
2022-08-22T10:13:21.592Z,28.40
2022-08-22T10:18:33.758Z,28.60
2022-08-22T10:23:41.682Z,28.80
2022-08-22T10:28:53.814Z,29.10
2022-08-22T10:34:04.283Z,29.40
2022-08-22T10:39:11.776Z,29.60
2022-08-22T10:44:20.706Z,29.90
2022-08-22T10:49:28.836Z,30.10
2022-08-22T12:06:13.427Z,28.50
2022-08-22T12:11:25.304Z,29.60
2022-08-22T12:16:38.996Z,30.50
2022-08-22T12:22:07.003Z,30.70
2022-08-22T12:27:39.646Z,30.90
2022-08-22T12:33:37.258Z,31.00
2022-08-22T12:38:50.434Z,31.30
2022-08-22T12:44:03.879Z,31.30
2022-08-22T12:49:17.298Z,30.80
2022-08-22T12:54:39.529Z,30.30
2022-08-22T12:59:46.733Z,29.80
2022-08-22T13:04:54.930Z,29.50
2022-08-22T13:10:01.606Z,29.20
2022-08-22T13:15:27.169Z,29.80
2022-08-22T13:20:34.344Z,30.40
2022-08-22T13:25:59.080Z,30.80
2022-08-22T13:31:03.272Z,31.00
2022-08-22T13:36:10.928Z,31.00
2022-08-22T13:41:18.694Z,30.80
2022-08-22T13:46:28.410Z,30.60
2022-08-22T13:51:39.938Z,30.60
2022-08-22T13:56:51.192Z,30.70
2022-08-22T14:01:59.034Z,30.90
2022-08-22T14:07:23.912Z,31.00
2022-08-22T14:12:30.234Z,30.60
2022-08-22T14:17:42.961Z,29.80
2022-08-22T14:34:21.978Z,29.70
2022-08-22T14:39:30.256Z,30.40
2022-08-22T14:44:40.166Z,30.80
2022-08-22T14:49:55.449Z,31.00
2022-08-22T14:55:21.488Z,31.20
2022-08-22T15:00:34.944Z,31.10
2022-08-22T15:05:51.318Z,31.00
2022-08-22T15:11:19.342Z,30.70
2022-08-22T15:16:23.323Z,30.60
2022-08-22T15:21:28.526Z,29.90
2022-08-22T15:26:33.877Z,29.30
2022-08-22T15:31:39.747Z,28.70
2022-08-22T15:37:08.493Z,28.30
2022-08-22T15:42:23.733Z,27.80
2022-08-22T15:47:36.144Z,27.50
2022-08-22T15:53:10.121Z,27.20
2022-08-22T15:58:21.778Z,27.50
2022-08-22T16:03:26.863Z,28.10
2022-08-22T16:08:47.588Z,28.50
2022-08-22T16:14:21.671Z,28.50
2022-08-22T16:19:24.977Z,28.30
2022-08-22T16:25:10.544Z,28.60
2022-08-22T16:30:15.108Z,28.40
2022-08-22T16:35:50.431Z,27.80
2022-08-22T16:40:53.869Z,27.80
2022-08-22T16:45:55.927Z,27.30
2022-08-22T16:51:11.959Z,27.50
2022-08-22T16:56:26.649Z,27.30
2022-08-22T17:01:41.232Z,27.50
2022-08-22T17:07:11.980Z,27.40
2022-08-22T17:12:30.630Z,27.00
2022-08-22T17:17:40.014Z,26.90
2022-08-22T17:22:51.107Z,26.80
2022-08-22T17:28:06.097Z,26.80
2022-08-22T17:33:15.475Z,26.50
2022-08-22T17:38:31.484Z,26.20
2022-08-22T17:43:55.726Z,25.80
2022-08-22T17:49:08.825Z,25.60
2022-08-22T17:54:21.963Z,25.60
2022-08-22T17:59:30.727Z,25.40
2022-08-22T18:04:47.514Z,25.10
2022-08-22T18:09:55.240Z,24.70
2022-08-22T18:15:03.372Z,24.40
2022-08-22T18:20:10.142Z,23.90
2022-08-22T18:25:32.648Z,23.50
2022-08-22T18:30:54.393Z,23.10
2022-08-22T18:36:04.935Z,22.70
2022-08-22T18:41:11.888Z,22.30
2022-08-22T18:46:39.899Z,21.90
2022-08-22T18:51:41.795Z,21.60
2022-08-22T18:56:49.209Z,21.30
2022-08-22T19:02:06.453Z,21.10
2022-08-22T19:07:46.861Z,20.80
2022-08-22T19:13:04.061Z,20.50
2022-08-22T19:18:33.882Z,20.30
2022-08-22T19:23:45.073Z,20.20
2022-08-22T19:28:47.450Z,20.10
2022-08-22T19:34:35.390Z,20.00
2022-08-22T19:39:54.464Z,19.90
2022-08-22T19:45:19.672Z,19.70
2022-08-22T19:50:30.947Z,19.70
2022-08-22T19:55:50.168Z,19.60
2022-08-22T20:00:55.993Z,19.50
2022-08-22T20:06:22.066Z,19.50
2022-08-22T20:11:43.453Z,19.30
2022-08-22T20:22:45.325Z,19.20
2022-08-22T20:27:48.883Z,19.10
2022-08-22T20:32:53.901Z,19.00
2022-08-22T20:38:15.722Z,18.90
2022-08-22T20:43:28.205Z,18.80
2022-08-22T20:48:39.246Z,18.70
2022-08-22T20:53:49.930Z,18.70
2022-08-22T20:58:51.858Z,18.70
2022-08-22T21:03:54.273Z,18.60
2022-08-22T21:09:12.675Z,18.70
2022-08-22T21:14:19.274Z,18.60
2022-08-22T21:19:26.934Z,18.60
2022-08-22T21:24:30.511Z,18.60
2022-08-22T21:29:34.999Z,18.50
2022-08-22T21:34:41.896Z,18.50
2022-08-22T21:39:47.792Z,18.50
2022-08-22T21:44:56.286Z,18.50
2022-08-22T21:50:26.865Z,18.40
2022-08-22T21:55:34.891Z,18.50
2022-08-22T22:00:48.839Z,18.50
2022-08-22T22:05:52.962Z,18.50
2022-08-22T22:10:59.396Z,18.60
2022-08-22T22:16:01.230Z,18.80
2022-08-22T22:21:03.501Z,19.00
2022-08-22T22:26:06.912Z,19.40
2022-08-22T22:31:09.283Z,19.60
2022-08-22T22:36:16.074Z,19.80
2022-08-22T22:41:20.331Z,19.90
2022-08-22T22:46:23.706Z,20.10
2022-08-22T22:51:26.063Z,20.00
2022-08-22T22:56:29.490Z,20.00
2022-08-22T23:01:31.512Z,19.80
2022-08-22T23:06:34.362Z,19.60
2022-08-22T23:11:37.548Z,19.50
2022-08-22T23:16:40.666Z,19.20
2022-08-22T23:21:43.856Z,18.90
2022-08-22T23:26:47.185Z,18.40
2022-08-22T23:31:50.974Z,18.00
2022-08-22T23:36:54.790Z,17.80
2022-08-22T23:41:59.077Z,17.80
2022-08-22T23:47:01.705Z,17.80
2022-08-22T23:52:04.356Z,18.00
2022-08-22T23:57:11.910Z,18.10
